Time;durP1;ratioP1;P1;durP2;ratioP2;P2;SDS_P1;SDS_P2;PMS_P1;PMS_P2;Temp;Humidity;BMP_temperature;BMP_pressure;BME280_temperature;BME280_humidity;BME280_pressure;Samples;Min_cycle;Max_cycle;Signal;HPM_P1;HPM_P2
2023/06/08 00:02:13;;;;;;;24.77;13.38;;;;;;;16.01;75.79;101724.69;5094486;28;20024;-58
2023/06/08 00:04:40;;;;;;;24.88;13.52;;;;;;;16.02;75.57;101731.88;5094205;28;20039;-59
2023/06/08 00:07:10;;;;;;;24.23;12.65;;;;;;;15.90;75.92;101726.91;5094524;28;20484;-58
2023/06/08 00:09:36;;;;;;;25.95;13.52;;;;;;;15.79;76.75;101712.38;5094669;28;20024;-60
2023/06/08 00:12:02;;;;;;;24.05;13.35;;;;;;;15.78;77.09;101721.91;5094499;28;20081;-59
2023/06/08 00:14:28;;;;;;;24.88;13.40;;;;;;;15.70;77.30;101720.69;5094352;28;20024;-59
2023/06/08 00:16:53;;;;;;;26.27;13.63;;;;;;;15.58;78.18;101718.50;5092896;28;20058;-59
2023/06/08 00:19:19;;;;;;;23.08;13.15;;;;;;;15.48;78.80;101717.97;5094345;28;20048;-59
2023/06/08 00:21:47;;;;;;;23.13;12.95;;;;;;;15.49;78.86;101714.03;5094357;28;20032;-59
2023/06/08 00:24:15;;;;;;;24.15;13.88;;;;;;;15.43;79.39;101718.91;5094784;28;20471;-59
2023/06/08 00:26:40;;;;;;;24.33;13.63;;;;;;;15.36;79.90;101719.34;5094339;28;20024;-59
2023/06/08 00:29:05;;;;;;;22.95;13.95;;;;;;;15.36;79.96;101721.31;5090693;28;20150;-60
2023/06/08 00:31:31;;;;;;;23.58;13.93;;;;;;;15.37;79.73;101715.44;5094089;28;20391;-59
2023/06/08 00:33:56;;;;;;;24.55;13.55;;;;;;;15.39;79.42;101710.38;5093993;28;20024;-58
2023/06/08 00:36:21;;;;;;;23.98;13.80;;;;;;;15.34;79.99;101710.47;5093996;28;20028;-58
2023/06/08 00:38:47;;;;;;;26.45;13.55;;;;;;;15.33;80.10;101716.38;5093745;28;20028;-58
2023/06/08 00:41:12;;;;;;;24.48;13.15;;;;;;;15.41;79.98;101713.63;5093661;28;20119;-58
2023/06/08 00:43:38;;;;;;;22.98;13.43;;;;;;;15.40;79.67;101713.97;5093772;28;20454;-58
2023/06/08 00:46:03;;;;;;;23.27;13.90;;;;;;;15.32;80.04;101709.97;5092702;28;20035;-58
2023/06/08 00:48:30;;;;;;;25.60;14.20;;;;;;;15.24;80.59;101703.22;5093654;28;20024;-58
2023/06/08 00:50:58;;;;;;;24.77;13.85;;;;;;;15.17;81.00;101707.56;5093822;28;20020;-59
2023/06/08 00:53:24;;;;;;;22.17;13.82;;;;;;;15.10;81.74;101699.66;5093461;28;20030;-58
2023/06/08 00:55:53;;;;;;;24.25;13.43;;;;;;;15.03;81.64;101702.06;5093681;28;20039;-59
2023/06/08 00:58:19;;;;;;;23.92;13.82;;;;;;;14.96;82.11;101703.34;5093461;28;20028;-58
2023/06/08 01:00:46;;;;;;;24.08;14.38;;;;;;;14.91;82.31;101695.09;5093367;28;20028;-59
2023/06/08 01:03:14;;;;;;;22.27;13.57;;;;;;;14.94;82.49;101697.25;5093193;28;20080;-58
2023/06/08 01:05:43;;;;;;;23.85;13.80;;;;;;;14.88;83.06;101687.34;5093447;28;20020;-57
2023/06/08 01:08:31;;;;;;;24.98;14.15;;;;;;;14.87;82.89;101691.28;5093266;28;20024;-58
2023/06/08 01:11:11;;;;;;;24.20;13.52;;;;;;;14.82;83.22;101688.63;5093330;28;20085;-59
2023/06/08 01:13:46;;;;;;;25.70;13.27;;;;;;;14.79;83.67;101686.44;5093195;28;20059;-58
2023/06/08 01:16:15;;;;;;;24.35;13.98;;;;;;;14.80;83.75;101688.09;5093356;28;20032;-58
2023/06/08 01:18:42;;;;;;;23.13;13.18;;;;;;;14.70;83.93;101689.16;5092925;28;20052;-58
2023/06/08 01:21:37;;;;;;;24.98;13.70;;;;;;;14.72;83.59;101700.00;5092918;28;20023;-58
2023/06/08 01:24:20;;;;;;;24.92;14.30;;;;;;;14.58;84.67;101695.25;5088830;28;20049;-59
2023/06/08 01:26:49;;;;;;;23.27;14.50;;;;;;;14.48;85.55;101687.13;5092868;28;20056;-58
2023/06/08 01:29:15;;;;;;;24.05;13.90;;;;;;;14.46;85.28;101684.66;5092878;28;20035;-58
2023/06/08 01:31:41;;;;;;;24.80;14.70;;;;;;;14.44;85.37;101689.72;5092861;28;20020;-58
2023/06/08 01:34:08;;;;;;;22.90;14.60;;;;;;;14.42;85.99;101689.19;5092643;28;20547;-59
2023/06/08 01:36:44;;;;;;;26.48;14.45;;;;;;;14.41;86.46;101686.72;5092740;28;20035;-58
2023/06/08 01:39:20;;;;;;;26.90;14.82;;;;;;;14.32;86.32;101679.09;5092833;28;20403;-58
2023/06/08 01:41:51;;;;;;;27.25;15.13;;;;;;;14.30;86.71;101684.19;5093329;28;20040;-58
2023/06/08 01:44:18;;;;;;;26.40;14.68;;;;;;;14.26;87.42;101685.91;5089712;28;20028;-58
2023/06/08 01:46:55;;;;;;;23.77;14.45;;;;;;;14.26;86.96;101682.31;5071244;28;20134;-58
2023/06/08 01:49:25;;;;;;;26.40;14.38;;;;;;;14.16;87.78;101688.91;5072377;28;20464;-57
2023/06/08 01:51:51;;;;;;;26.35;14.52;;;;;;;14.08;88.17;101676.53;5072417;28;20100;-57
2023/06/08 01:54:16;;;;;;;24.05;14.55;;;;;;;14.11;87.49;101672.34;5072384;28;20434;-58
2023/06/08 01:56:41;;;;;;;26.50;14.98;;;;;;;14.05;88.45;101663.28;5071809;28;20071;-57
2023/06/08 01:59:06;;;;;;;26.38;15.88;;;;;;;14.00;88.54;101666.13;5071954;28;20120;-58
2023/06/08 02:01:32;;;;;;;26.05;14.25;;;;;;;13.93;88.73;101658.22;5072016;28;20044;-58
2023/06/08 02:03:57;;;;;;;26.23;15.63;;;;;;;13.88;88.99;101661.09;5072058;28;20035;-58
2023/06/08 02:06:22;;;;;;;27.35;15.38;;;;;;;13.81;89.63;101674.59;5072413;28;20071;-58
2023/06/08 02:08:48;;;;;;;26.10;15.35;;;;;;;13.74;90.07;101677.78;5072636;28;20059;-57
2023/06/08 02:11:13;;;;;;;25.20;15.40;;;;;;;13.66;90.55;101673.75;5072526;28;20096;-58
2023/06/08 02:13:40;;;;;;;24.85;14.73;;;;;;;13.61;90.75;101671.06;5072059;28;20361;-58
2023/06/08 02:16:05;;;;;;;27.80;15.27;;;;;;;13.60;90.96;101674.16;5072379;28;20100;-57
2023/06/08 02:18:34;;;;;;;25.90;15.10;;;;;;;13.54;91.09;101667.88;5072162;28;20111;-58
2023/06/08 02:21:01;;;;;;;26.80;15.15;;;;;;;13.49;91.77;101660.47;5072223;28;20521;-58
2023/06/08 02:23:26;;;;;;;25.90;15.57;;;;;;;13.44;91.78;101668.88;5072077;28;20063;-57
2023/06/08 02:25:51;;;;;;;27.35;15.85;;;;;;;13.46;91.72;101660.25;5068152;28;20079;-57
2023/06/08 02:28:16;;;;;;;25.42;15.00;;;;;;;13.41;92.59;101666.72;5072232;28;20056;-58
2023/06/08 02:30:42;;;;;;;25.20;15.02;;;;;;;13.33;92.64;101667.38;5071929;28;20167;-57
2023/06/08 02:33:08;;;;;;;25.27;15.30;;;;;;;13.29;92.57;101669.13;5071944;28;20039;-58
2023/06/08 02:35:33;;;;;;;25.48;15.30;;;;;;;13.26;92.94;101668.59;5071972;28;20103;-57
2023/06/08 02:37:58;;;;;;;26.75;15.80;;;;;;;13.20;93.33;101668.97;5071951;28;20025;-58
2023/06/08 02:40:24;;;;;;;27.15;16.30;;;;;;;13.13;93.95;101666.59;5071806;28;20027;-58
2023/06/08 02:42:49;;;;;;;26.85;15.10;;;;;;;13.20;93.55;101675.38;5071742;28;20396;-58
2023/06/08 02:45:15;;;;;;;27.20;16.02;;;;;;;13.20;93.53;101664.28;5071640;28;20060;-57
2023/06/08 02:47:40;;;;;;;26.63;15.80;;;;;;;13.14;93.93;101668.25;5071815;28;20025;-57
2023/06/08 02:50:06;;;;;;;24.10;15.55;;;;;;;13.07;94.78;101667.81;5071670;28;20027;-58
2023/06/08 02:52:31;;;;;;;28.52;15.75;;;;;;;13.06;94.92;101668.94;5071975;28;20032;-57
2023/06/08 02:54:56;;;;;;;26.98;15.45;;;;;;;13.06;94.28;101663.38;5071896;28;20024;-57
2023/06/08 02:57:22;;;;;;;29.02;16.52;;;;;;;13.09;94.33;101666.38;5071575;28;20063;-57
2023/06/08 02:59:47;;;;;;;29.45;16.08;;;;;;;13.10;94.24;101670.81;5071515;28;20017;-59
2023/06/08 03:02:12;;;;;;;28.58;15.30;;;;;;;13.02;94.81;101670.69;5071606;28;20047;-57
2023/06/08 03:04:38;;;;;;;26.23;15.65;;;;;;;12.96;95.62;101661.59;5071524;28;20482;-57
2023/06/08 03:07:03;;;;;;;25.80;16.27;;;;;;;12.99;95.69;101662.94;5071659;28;20515;-58
2023/06/08 03:09:29;;;;;;;28.08;16.17;;;;;;;12.83;96.37;101665.97;5072973;28;20028;-58
2023/06/08 03:11:55;;;;;;;28.63;16.60;;;;;;;12.77;96.50;101659.69;5075226;28;20640;-58
2023/06/08 03:14:21;;;;;;;28.88;16.00;;;;;;;12.76;96.82;101662.72;5074835;28;20498;-57
2023/06/08 03:16:47;;;;;;;26.45;16.73;;;;;;;12.77;97.12;101661.63;5075107;28;20028;-57
2023/06/08 03:19:13;;;;;;;28.55;16.10;;;;;;;12.78;96.39;101655.78;5075046;28;20398;-58
2023/06/08 03:21:41;;;;;;;26.30;16.00;;;;;;;12.82;96.79;101663.47;5074808;28;20033;-57
2023/06/08 03:24:09;;;;;;;26.20;16.70;;;;;;;12.73;97.54;101653.06;5074787;28;20040;-58
2023/06/08 03:26:35;;;;;;;25.50;16.17;;;;;;;12.70;97.26;101656.47;5074676;28;20432;-57
2023/06/08 03:29:00;;;;;;;27.95;15.57;;;;;;;12.66;97.43;101649.84;5071187;28;20040;-57
2023/06/08 03:31:26;;;;;;;26.80;15.98;;;;;;;12.57;98.63;101648.88;5074746;28;20020;-58
2023/06/08 03:33:51;;;;;;;26.40;16.05;;;;;;;12.61;98.03;101661.03;5074905;28;20032;-58
2023/06/08 03:36:17;;;;;;;26.02;16.17;;;;;;;12.51;99.35;101650.91;5074774;28;20089;-58
2023/06/08 03:38:43;;;;;;;27.73;16.05;;;;;;;12.54;98.61;101661.41;5074932;28;20023;-58
2023/06/08 03:41:08;;;;;;;27.27;16.63;;;;;;;12.63;97.94;101656.00;5074932;28;20123;-58
2023/06/08 03:43:37;;;;;;;27.13;15.90;;;;;;;12.71;97.04;101669.19;5074747;28;20033;-57
2023/06/08 03:46:02;;;;;;;28.02;16.15;;;;;;;12.67;97.75;101667.31;5074704;28;20064;-58
2023/06/08 03:48:27;;;;;;;28.05;17.27;;;;;;;12.65;97.67;101673.19;5073595;28;20067;-57
2023/06/08 03:50:53;;;;;;;26.80;16.88;;;;;;;12.52;98.17;101665.59;5074597;28;20052;-57
2023/06/08 03:53:18;;;;;;;26.40;15.55;;;;;;;12.54;98.45;101664.19;5074569;28;20028;-57
2023/06/08 03:55:43;;;;;;;27.65;16.77;;;;;;;12.53;98.44;101665.31;5074496;28;20077;-58
2023/06/08 03:58:09;;;;;;;26.20;15.30;;;;;;;12.59;98.11;101668.84;5074400;28;20056;-57
2023/06/08 04:00:34;;;;;;;28.95;16.67;;;;;;;12.62;98.32;101663.50;5073973;28;20589;-56
2023/06/08 04:03:00;;;;;;;26.65;15.93;;;;;;;12.67;97.54;101667.31;5073693;28;20032;-57
2023/06/08 04:05:25;;;;;;;28.70;16.40;;;;;;;12.59;97.59;101664.09;5074125;28;20027;-57
2023/06/08 04:07:51;;;;;;;25.95;16.33;;;;;;;12.58;97.78;101665.22;5074162;28;20024;-57
2023/06/08 04:10:17;;;;;;;28.50;16.65;;;;;;;12.61;97.50;101656.31;5074247;28;20095;-57
2023/06/08 04:12:43;;;;;;;28.63;16.88;;;;;;;12.64;97.36;101661.25;5074042;28;20487;-57
2023/06/08 04:15:10;;;;;;;27.40;17.23;;;;;;;12.67;97.31;101659.84;5074173;28;20028;-57
2023/06/08 04:17:36;;;;;;;31.45;17.83;;;;;;;12.67;97.32;101667.31;5074454;28;20021;-57
2023/06/08 04:20:04;;;;;;;26.95;17.08;;;;;;;12.67;97.60;101661.75;5073818;28;20059;-58
2023/06/08 04:22:29;;;;;;;28.20;17.05;;;;;;;12.77;96.84;101664.38;5074227;28;20078;-58
2023/06/08 04:24:54;;;;;;;28.52;16.73;;;;;;;12.74;96.57;101659.47;5073905;28;20475;-59
2023/06/08 04:27:21;;;;;;;27.75;16.30;;;;;;;12.80;96.56;101653.50;5072468;28;20029;-58
2023/06/08 04:29:46;;;;;;;27.67;16.08;;;;;;;12.79;96.53;101668.53;5070423;28;20024;-57
2023/06/08 04:32:11;;;;;;;27.38;16.80;;;;;;;12.74;96.77;101663.03;5073895;28;20020;-58
2023/06/08 04:34:37;;;;;;;28.13;16.67;;;;;;;12.73;96.66;101660.59;5073664;28;20040;-58
2023/06/08 04:37:02;;;;;;;28.15;17.17;;;;;;;12.75;96.01;101652.78;5073629;28;20206;-58
2023/06/08 04:39:27;;;;;;;28.75;17.88;;;;;;;12.72;96.72;101656.97;5088006;28;20035;-58
2023/06/08 04:41:53;;;;;;;28.77;17.58;;;;;;;12.73;96.87;101650.28;5093902;28;20039;-58
2023/06/08 04:44:20;;;;;;;27.48;16.67;;;;;;;12.71;97.03;101655.31;5093947;28;20062;-58
2023/06/08 04:46:46;;;;;;;29.55;18.02;;;;;;;12.64;97.50;101655.72;5093896;28;20186;-58
2023/06/08 04:49:12;;;;;;;28.40;16.83;;;;;;;12.72;97.19;101659.75;5093785;28;20039;-58
2023/06/08 04:51:40;;;;;;;28.25;17.85;;;;;;;12.77;96.87;101654.13;5093629;28;20028;-58
2023/06/08 04:54:13;;;;;;;27.17;17.27;;;;;;;12.70;96.59;101652.84;5093593;28;20082;-58
2023/06/08 04:56:40;;;;;;;28.10;17.35;;;;;;;12.66;97.17;101662.91;5093872;28;20056;-59
2023/06/08 04:59:06;;;;;;;27.52;17.80;;;;;;;12.68;97.10;101655.09;5093365;28;20430;-58
2023/06/08 05:01:31;;;;;;;28.05;17.35;;;;;;;12.75;96.81;101655.56;5093520;28;20032;-58
2023/06/08 05:03:57;;;;;;;29.90;18.00;;;;;;;12.80;96.35;101650.72;5093279;28;20024;-58
2023/06/08 05:06:22;;;;;;;29.20;17.08;;;;;;;12.87;95.50;101650.34;5093250;28;20047;-58
2023/06/08 05:08:47;;;;;;;27.45;17.35;;;;;;;12.88;95.59;101652.00;5093241;28;20038;-58
2023/06/08 05:11:12;;;;;;;29.20;18.25;;;;;;;12.93;95.12;101651.94;5093549;28;20024;-58
2023/06/08 05:13:38;;;;;;;28.27;17.50;;;;;;;12.97;94.99;101649.38;5092017;28;20486;-60
2023/06/08 05:16:03;;;;;;;29.40;17.52;;;;;;;13.03;94.58;101653.72;5093143;28;20083;-59
2023/06/08 05:18:29;;;;;;;27.60;16.80;;;;;;;13.05;94.39;101656.16;5093112;28;20039;-59
2023/06/08 05:20:54;;;;;;;29.92;17.85;;;;;;;13.17;94.36;101652.94;5093012;28;20173;-58
2023/06/08 05:23:19;;;;;;;27.80;16.88;;;;;;;13.25;93.41;101658.59;5093010;28;20373;-59
2023/06/08 05:25:45;;;;;;;26.75;17.17;;;;;;;13.31;93.12;101647.41;5092894;28;20054;-58
2023/06/08 05:28:11;;;;;;;33.22;17.55;;;;;;;13.50;92.25;101642.66;5092755;28;20476;-57
2023/06/08 05:30:36;;;;;;;29.60;17.10;;;;;;;13.75;91.15;101648.84;5090132;28;20399;-58
2023/06/08 05:33:01;;;;;;;27.23;17.08;;;;;;;14.00;89.38;101650.28;5092105;28;20436;-57
2023/06/08 05:35:27;;;;;;;26.83;17.08;;;;;;;14.14;88.36;101641.09;5092652;28;20034;-58
2023/06/08 05:37:52;;;;;;;28.15;17.48;;;;;;;14.20;87.41;101642.66;5091183;28;20111;-58
2023/06/08 05:40:18;;;;;;;27.50;17.08;;;;;;;14.26;87.24;101643.38;5091081;28;20027;-58
2023/06/08 05:42:43;;;;;;;27.17;17.10;;;;;;;14.32;87.28;101644.88;5092588;28;20095;-58
2023/06/08 05:45:09;;;;;;;27.95;16.67;;;;;;;14.33;87.33;101640.97;5092688;28;20434;-58
2023/06/08 05:47:34;;;;;;;27.50;17.27;;;;;;;14.35;86.42;101639.53;5092628;28;20040;-58
2023/06/08 05:50:00;;;;;;;25.52;16.80;;;;;;;14.41;85.90;101647.75;5092466;28;20020;-58
2023/06/08 05:52:25;;;;;;;26.90;17.05;;;;;;;14.42;85.94;101639.09;5092475;28;20035;-58
2023/06/08 05:54:51;;;;;;;27.52;18.00;;;;;;;14.28;86.33;101641.91;5092244;28;20467;-58
2023/06/08 05:57:16;;;;;;;27.48;17.38;;;;;;;14.25;86.45;101639.75;5092224;28;20396;-58
2023/06/08 05:59:41;;;;;;;27.05;17.13;;;;;;;14.32;86.55;101644.88;5091994;28;20032;-58
2023/06/08 06:02:07;;;;;;;27.40;17.52;;;;;;;14.36;85.97;101645.91;5092214;28;20383;-58
2023/06/08 06:04:34;;;;;;;26.95;17.63;;;;;;;14.44;86.01;101630.41;5090649;28;20035;-58
2023/06/08 06:06:59;;;;;;;27.42;17.17;;;;;;;14.42;85.84;101636.31;5092061;28;20016;-57
2023/06/08 06:09:25;;;;;;;26.85;17.23;;;;;;;14.51;85.43;101630.81;5092160;28;20123;-58
2023/06/08 06:11:50;;;;;;;25.48;16.75;;;;;;;14.64;85.13;101634.72;5092062;28;20024;-58
2023/06/08 06:14:15;;;;;;;27.60;17.23;;;;;;;14.69;84.59;101636.59;5091880;28;20029;-58
2023/06/08 06:16:41;;;;;;;28.08;17.95;;;;;;;14.70;84.37;101643.78;5091767;28;20111;-58
2023/06/08 06:19:06;;;;;;;28.70;17.65;;;;;;;14.69;84.54;101642.97;5091923;28;20044;-58
2023/06/08 06:21:32;;;;;;;28.52;18.00;;;;;;;14.77;84.54;101644.19;5091608;28;20039;-58
2023/06/08 06:23:57;;;;;;;26.77;17.40;;;;;;;14.88;83.94;101647.53;5091323;28;20085;-58
2023/06/08 06:26:22;;;;;;;27.15;17.85;;;;;;;14.96;82.91;101638.41;5091344;28;20047;-59
2023/06/08 06:28:48;;;;;;;27.52;17.67;;;;;;;15.10;82.78;101641.13;5091610;28;20476;-59
2023/06/08 06:31:13;;;;;;;28.35;17.58;;;;;;;15.21;82.05;101648.09;5090808;28;20057;-59
2023/06/08 06:33:38;;;;;;;27.88;17.65;;;;;;;15.34;82.23;101640.78;5090773;28;20016;-60
2023/06/08 06:36:05;;;;;;;28.15;17.85;;;;;;;15.43;81.47;101644.44;5090587;28;20384;-59
2023/06/08 06:38:31;;;;;;;28.20;17.45;;;;;;;15.44;80.77;101640.50;5089326;28;20383;-59
2023/06/08 06:40:56;;;;;;;27.13;18.58;;;;;;;15.50;80.72;101635.63;5088071;28;20028;-59
2023/06/08 06:43:22;;;;;;;26.85;17.85;;;;;;;15.64;80.81;101645.84;5090843;28;20028;-59
2023/06/08 06:45:51;;;;;;;30.15;17.08;;;;;;;15.63;79.34;101644.22;5094577;28;20020;-59
2023/06/08 06:48:19;;;;;;;27.05;17.63;;;;;;;15.75;79.03;101644.41;5094744;28;20058;-59
2023/06/08 06:50:44;;;;;;;27.80;17.48;;;;;;;15.79;79.13;101655.75;5094733;28;20525;-59
2023/06/08 06:53:10;;;;;;;26.35;16.73;;;;;;;15.67;77.95;101648.84;5094284;28;20115;-59
2023/06/08 06:55:35;;;;;;;27.77;17.58;;;;;;;15.81;78.66;101648.72;5095680;28;20059;-59
2023/06/08 06:58:02;;;;;;;27.48;17.60;;;;;;;15.92;78.18;101640.91;5095473;28;20047;-59
2023/06/08 07:00:29;;;;;;;26.65;17.75;;;;;;;15.97;77.93;101645.53;5095820;28;20024;-62
2023/06/08 07:02:56;;;;;;;27.42;18.13;;;;;;;16.00;78.00;101642.09;5095500;28;20020;-58
2023/06/08 07:05:21;;;;;;;29.55;17.50;;;;;;;16.06;77.63;101641.59;5095343;28;20020;-60
2023/06/08 07:07:47;;;;;;;29.42;18.65;;;;;;;16.20;77.18;101643.44;5095708;28;20032;-60
2023/06/08 07:10:12;;;;;;;27.65;17.80;;;;;;;16.32;76.81;101646.44;5095741;28;20039;-59
2023/06/08 07:12:37;;;;;;;28.40;18.48;;;;;;;16.43;76.92;101648.91;5095461;28;20476;-59
2023/06/08 07:15:03;;;;;;;28.30;17.05;;;;;;;16.45;75.62;101639.06;5095419;28;20024;-60
2023/06/08 07:17:29;;;;;;;27.73;18.13;;;;;;;16.48;75.93;101645.94;5093296;28;20544;-59
2023/06/08 07:19:54;;;;;;;29.38;18.52;;;;;;;16.42;75.80;101644.47;5093791;28;20040;-60
2023/06/08 07:22:19;;;;;;;29.35;17.88;;;;;;;16.49;75.61;101654.00;5092458;28;20039;-59
2023/06/08 07:24:45;;;;;;;28.42;18.10;;;;;;;16.56;75.47;101652.69;5093946;28;20036;-60
2023/06/08 07:27:10;;;;;;;27.52;18.58;;;;;;;16.64;75.38;101661.06;5093981;28;20024;-59
2023/06/08 07:29:37;;;;;;;27.92;18.15;;;;;;;16.63;75.01;101665.00;5093792;28;20027;-59
2023/06/08 07:32:02;;;;;;;28.48;18.25;;;;;;;16.62;75.71;101662.56;5092289;28;20653;-59
2023/06/08 07:34:28;;;;;;;31.15;18.98;;;;;;;16.67;75.48;101656.81;5093932;28;20028;-59
2023/06/08 07:36:53;;;;;;;27.50;18.10;;;;;;;16.79;75.12;101656.16;5093607;28;20103;-59
2023/06/08 07:39:19;;;;;;;28.38;19.95;;;;;;;16.89;75.13;101657.78;5093689;28;20491;-57
2023/06/08 07:41:44;;;;;;;28.25;18.23;;;;;;;16.95;75.21;101648.13;5093877;28;20055;-59
2023/06/08 07:44:10;;;;;;;27.02;18.13;;;;;;;17.08;75.15;101652.69;5093619;28;20435;-58
2023/06/08 07:46:35;;;;;;;28.00;18.52;;;;;;;17.19;73.82;101650.41;5093620;28;20029;-58
2023/06/08 07:49:00;;;;;;;28.17;19.40;;;;;;;17.29;74.47;101647.22;5093206;28;20491;-57
2023/06/08 07:51:26;;;;;;;26.33;18.13;;;;;;;17.45;73.75;101647.50;5093350;28;20028;-60
2023/06/08 07:53:51;;;;;;;27.15;17.90;;;;;;;17.61;73.48;101647.78;5093221;28;20036;-58
2023/06/08 07:56:16;;;;;;;30.58;18.88;;;;;;;17.73;72.50;101641.47;5089976;28;20051;-58
2023/06/08 07:58:42;;;;;;;25.98;18.20;;;;;;;17.77;71.90;101638.84;5093218;28;20118;-59
2023/06/08 08:01:07;;;;;;;28.83;17.92;;;;;;;17.74;72.28;101628.34;5093131;28;20028;-59
2023/06/08 08:03:39;;;;;;;28.55;19.02;;;;;;;17.66;72.77;101632.81;5093431;28;20032;-59
2023/06/08 08:06:06;;;;;;;29.10;18.63;;;;;;;17.72;73.21;101625.84;5093397;28;20162;-59
2023/06/08 08:08:31;;;;;;;28.27;19.52;;;;;;;17.85;72.86;101629.59;5093278;28;20648;-59
2023/06/08 08:10:56;;;;;;;30.17;20.38;;;;;;;18.05;72.44;101630.81;5094189;28;20031;-59
2023/06/08 08:13:22;;;;;;;27.05;19.35;;;;;;;18.22;71.75;101629.06;5093971;28;20034;-59
2023/06/08 08:15:47;;;;;;;29.05;19.05;;;;;;;18.19;70.28;101633.38;5093972;28;20043;-59
2023/06/08 08:18:15;;;;;;;27.13;18.48;;;;;;;18.28;71.14;101635.28;5093205;28;20032;-59
2023/06/08 08:20:41;;;;;;;24.88;17.63;;;;;;;18.54;71.28;101644.31;5094011;28;20044;-59
2023/06/08 08:23:07;;;;;;;27.35;17.83;;;;;;;18.71;69.92;101637.78;5084626;28;20361;-58
2023/06/08 08:25:33;;;;;;;25.45;17.73;;;;;;;18.84;69.61;101641.44;5078083;28;20039;-59
2023/06/08 08:27:58;;;;;;;26.42;17.92;;;;;;;18.99;68.49;101642.00;5093749;28;20024;-59
2023/06/08 08:30:23;;;;;;;27.40;17.70;;;;;;;19.12;68.67;101649.28;5093835;28;20040;-59
2023/06/08 08:32:49;;;;;;;25.45;17.70;;;;;;;19.14;67.91;101638.56;5093879;28;20024;-59
2023/06/08 08:35:15;;;;;;;25.20;17.77;;;;;;;19.15;68.08;101643.00;5093941;28;20158;-59
2023/06/08 08:37:42;;;;;;;25.83;17.83;;;;;;;19.20;67.45;101644.75;5093995;28;20399;-59
2023/06/08 08:40:09;;;;;;;25.92;18.20;;;;;;;19.14;67.82;101643.31;5094046;28;20061;-59
2023/06/08 08:42:41;;;;;;;26.27;17.52;;;;;;;19.20;68.02;101632.72;5073512;28;20029;-59
2023/06/08 08:45:09;;;;;;;27.73;18.05;;;;;;;19.38;67.03;101641.75;5073499;28;20037;-59
2023/06/08 08:47:37;;;;;;;26.77;17.73;;;;;;;19.47;66.69;101634.06;5113027;28;20059;-59
2023/06/08 08:50:06;;;;;;;25.52;17.73;;;;;;;19.64;66.30;101633.03;5113057;28;20023;-59
2023/06/08 08:52:33;;;;;;;25.67;16.98;;;;;;;19.66;65.95;101630.69;5112771;28;20043;-58
2023/06/08 08:55:00;;;;;;;25.45;17.48;;;;;;;19.61;65.58;101634.53;5112959;27;20054;-59
2023/06/08 08:57:30;;;;;;;25.67;16.80;;;;;;;19.78;65.88;101629.91;5112895;27;20347;-58
2023/06/08 08:59:56;;;;;;;25.02;17.35;;;;;;;19.83;65.32;101626.84;5112733;28;20035;-59
2023/06/08 09:02:21;;;;;;;27.48;17.15;;;;;;;19.99;65.15;101624.19;5113189;28;20036;-59
2023/06/08 09:04:47;;;;;;;26.02;18.13;;;;;;;20.02;64.18;101636.69;5113717;28;20026;-59
2023/06/08 09:07:17;;;;;;;26.83;16.25;;;;;;;20.01;64.84;101627.47;5112815;28;20110;-59
2023/06/08 09:10:11;;;;;;;26.40;16.67;;;;;;;19.99;65.17;101623.34;5113863;28;20050;-59
2023/06/08 09:12:45;;;;;;;24.27;16.30;;;;;;;19.94;64.38;101615.97;5113603;28;20111;-59
2023/06/08 09:15:13;;;;;;;25.02;17.20;;;;;;;19.88;64.69;101620.19;5113789;28;20019;-59
2023/06/08 09:17:40;;;;;;;26.23;16.55;;;;;;;19.92;64.68;101615.53;5113703;28;20121;-59
2023/06/08 09:20:08;;;;;;;23.92;15.80;;;;;;;20.27;64.84;101615.00;5113501;28;20130;-59
2023/06/08 09:22:33;;;;;;;23.50;15.88;;;;;;;20.44;62.87;101610.28;5113587;28;20031;-59
2023/06/08 09:24:58;;;;;;;25.17;16.05;;;;;;;20.65;62.52;101615.72;5113211;28;20028;-59
2023/06/08 09:27:27;;;;;;;25.40;17.02;;;;;;;20.74;61.19;101616.41;5113297;28;20076;-59
2023/06/08 09:29:54;;;;;;;24.17;16.45;;;;;;;20.84;61.64;101615.91;5113487;28;20121;-60
2023/06/08 09:32:25;;;;;;;24.63;15.77;;;;;;;21.23;61.07;101611.72;5113209;28;20092;-60
2023/06/08 09:35:01;;;;;;;24.00;15.95;;;;;;;21.63;59.26;101602.31;5113069;28;20386;-60
2023/06/08 09:37:29;;;;;;;23.98;14.98;;;;;;;22.06;57.82;101614.63;5097013;28;20034;-59
2023/06/08 09:39:55;;;;;;;24.77;15.80;;;;;;;22.10;56.18;101615.53;5092621;28;20028;-59
2023/06/08 09:42:21;;;;;;;22.88;15.05;;;;;;;22.26;57.16;101604.22;5092524;28;20021;-59
2023/06/08 09:44:46;;;;;;;24.50;15.32;;;;;;;22.33;56.31;101609.19;5092629;28;20027;-59
2023/06/08 09:47:21;;;;;;;24.65;15.48;;;;;;;22.20;56.44;101605.66;5092538;28;20475;-59
2023/06/08 09:49:49;;;;;;;24.25;15.38;;;;;;;22.14;55.52;101607.16;5092754;28;20024;-59
2023/06/08 09:52:18;;;;;;;24.02;14.77;;;;;;;22.04;55.75;101619.00;5092689;28;20082;-59
2023/06/08 09:54:45;;;;;;;24.92;15.02;;;;;;;21.90;55.13;101619.47;5092609;28;20060;-59
2023/06/08 09:57:13;;;;;;;23.85;15.60;;;;;;;21.63;55.58;101622.03;5091356;28;20114;-60
2023/06/08 09:59:44;;;;;;;23.63;16.25;;;;;;;21.57;55.38;101624.28;5092296;28;20081;-60
2023/06/08 10:02:13;;;;;;;23.50;16.08;;;;;;;21.37;55.91;101614.09;5092419;28;20123;-59
2023/06/08 10:04:41;;;;;;;24.08;15.20;;;;;;;21.40;56.01;101611.38;5092372;28;20056;-58
2023/06/08 10:07:17;;;;;;;26.05;16.20;;;;;;;21.43;55.78;101612.66;5092304;28;20035;-59
2023/06/08 10:09:45;;;;;;;23.42;14.90;;;;;;;21.38;56.40;101610.09;5092561;28;20028;-60
2023/06/08 10:12:12;;;;;;;22.98;14.55;;;;;;;21.46;55.38;101604.31;5092483;28;20058;-60
2023/06/08 10:14:39;;;;;;;24.27;15.45;;;;;;;21.47;54.75;101602.28;5092457;28;20089;-59
2023/06/08 10:17:04;;;;;;;24.58;15.38;;;;;;;21.50;55.04;101601.59;5092265;28;20047;-58
2023/06/08 10:19:32;;;;;;;24.00;15.40;;;;;;;21.41;53.97;101598.94;5091842;28;20052;-58
2023/06/08 10:21:58;;;;;;;24.95;15.25;;;;;;;21.37;55.25;101598.03;5092490;28;20032;-59
2023/06/08 10:24:26;;;;;;;23.40;15.13;;;;;;;21.20;55.35;101593.56;5084683;28;20032;-59
2023/06/08 10:27:15;;;;;;;24.92;15.52;;;;;;;21.18;55.66;101595.91;5071075;28;20460;-59
2023/06/08 10:29:58;;;;;;;23.98;15.15;;;;;;;21.31;55.25;101591.84;5070775;28;20345;-60
2023/06/08 10:32:33;;;;;;;22.73;14.35;;;;;;;21.64;56.34;101581.44;5070840;28;20094;-61
2023/06/08 10:35:04;;;;;;;22.92;15.20;;;;;;;21.85;54.47;101592.41;5070998;28;20048;-59
2023/06/08 10:37:33;;;;;;;23.55;15.48;;;;;;;22.24;54.36;101581.22;5071022;28;20063;-60
2023/06/08 10:40:00;;;;;;;23.75;14.98;;;;;;;22.29;53.26;101585.75;5070742;28;20032;-59
2023/06/08 10:42:26;;;;;;;23.33;14.55;;;;;;;22.21;52.89;101583.97;5069350;28;20024;-59
2023/06/08 10:44:57;;;;;;;24.33;14.18;;;;;;;22.34;53.75;101573.34;5070861;28;20077;-59
2023/06/08 10:47:23;;;;;;;22.45;14.02;;;;;;;22.41;53.66;101580.00;5070802;28;20867;-60
2023/06/08 10:50:09;;;;;;;23.10;14.07;;;;;;;22.62;54.24;101572.34;5082514;28;20032;-59
2023/06/08 10:52:40;;;;;;;22.15;13.30;;;;;;;22.73;52.69;101564.94;5090704;28;20040;-59
2023/06/08 10:55:13;;;;;;;23.02;13.60;;;;;;;22.87;52.95;101573.66;5090843;28;20359;-61
2023/06/08 10:57:52;;;;;;;22.95;13.02;;;;;;;22.97;53.27;101572.25;5089502;28;20035;-58
2023/06/08 11:00:28;;;;;;;21.35;13.23;;;;;;;;;;5090526;28;20031;-58
2023/06/08 11:03:03;;;;;;;21.45;14.02;;;;;;;22.88;51.69;101564.00;5090276;28;20433;-59
2023/06/08 11:05:34;;;;;;;21.13;13.90;;;;;;;22.82;51.24;101556.22;5090554;28;20071;-58
2023/06/08 11:08:00;;;;;;;23.05;12.73;;;;;;;22.82;51.00;101559.03;5090391;28;20027;-60
2023/06/08 11:10:27;;;;;;;23.15;14.02;;;;;;;22.80;50.38;101564.25;5087888;28;20031;-59